sensor_id;sensor_type;location;lat;lon;timestamp;P1;durP1;ratioP1;P2;durP2;ratioP2
6809;SDS011;3443;48.812;9.112;2023-03-01T00:01:24;13.60;;;11.93;;
6809;SDS011;3443;48.812;9.112;2023-03-01T00:03:51;12.53;;;11.23;;
6809;SDS011;3443;48.812;9.112;2023-03-01T00:06:18;14.80;;;12.10;;
6809;SDS011;3443;48.812;9.112;2023-03-01T00:08:45;13.73;;;12.20;;
6809;SDS011;3443;48.812;9.112;2023-03-01T00:11:15;16.00;;;12.30;;
6809;SDS011;3443;48.812;9.112;2023-03-01T00:13:42;16.37;;;11.80;;
6809;SDS011;3443;48.812;9.112;2023-03-01T00:16:10;13.67;;;11.33;;
6809;SDS011;3443;48.812;9.112;2023-03-01T00:18:38;14.37;;;12.00;;
6809;SDS011;3443;48.812;9.112;2023-03-01T00:21:04;13.77;;;11.87;;
6809;SDS011;3443;48.812;9.112;2023-03-01T00:23:30;14.57;;;12.43;;
6809;SDS011;3443;48.812;9.112;2023-03-01T00:25:56;16.13;;;11.63;;
6809;SDS011;3443;48.812;9.112;2023-03-01T00:28:22;16.30;;;12.70;;
6809;SDS011;3443;48.812;9.112;2023-03-01T00:30:48;17.47;;;12.43;;
6809;SDS011;3443;48.812;9.112;2023-03-01T00:33:13;14.83;;;13.00;;
6809;SDS011;3443;48.812;9.112;2023-03-01T00:35:39;17.00;;;13.00;;
6809;SDS011;3443;48.812;9.112;2023-03-01T00:38:05;15.00;;;12.80;;
6809;SDS011;3443;48.812;9.112;2023-03-01T00:40:32;20.97;;;12.97;;
6809;SDS011;3443;48.812;9.112;2023-03-01T00:42:59;16.03;;;13.07;;
6809;SDS011;3443;48.812;9.112;2023-03-01T00:45:24;14.70;;;13.03;;
6809;SDS011;3443;48.812;9.112;2023-03-01T00:47:50;14.77;;;12.77;;
6809;SDS011;3443;48.812;9.112;2023-03-01T00:50:16;17.47;;;14.00;;
6809;SDS011;3443;48.812;9.112;2023-03-01T00:52:43;14.10;;;12.37;;
6809;SDS011;3443;48.812;9.112;2023-03-01T00:55:09;17.23;;;13.13;;
6809;SDS011;3443;48.812;9.112;2023-03-01T00:57:35;14.30;;;12.50;;
6809;SDS011;3443;48.812;9.112;2023-03-01T01:00:02;16.07;;;14.27;;
6809;SDS011;3443;48.812;9.112;2023-03-01T01:02:29;24.63;;;18.43;;
6809;SDS011;3443;48.812;9.112;2023-03-01T01:04:58;22.33;;;17.33;;
6809;SDS011;3443;48.812;9.112;2023-03-01T01:07:24;19.60;;;15.87;;
6809;SDS011;3443;48.812;9.112;2023-03-01T01:09:49;22.30;;;15.70;;
6809;SDS011;3443;48.812;9.112;2023-03-01T01:12:15;18.97;;;15.07;;
6809;SDS011;3443;48.812;9.112;2023-03-01T01:14:41;17.00;;;14.93;;
6809;SDS011;3443;48.812;9.112;2023-03-01T01:17:06;20.30;;;15.77;;
6809;SDS011;3443;48.812;9.112;2023-03-01T01:19:32;23.07;;;17.57;;
6809;SDS011;3443;48.812;9.112;2023-03-01T01:21:57;16.43;;;14.43;;
6809;SDS011;3443;48.812;9.112;2023-03-01T01:24:23;19.37;;;14.60;;
6809;SDS011;3443;48.812;9.112;2023-03-01T01:26:49;17.30;;;13.00;;
6809;SDS011;3443;48.812;9.112;2023-03-01T01:29:14;15.43;;;13.83;;
6809;SDS011;3443;48.812;9.112;2023-03-01T01:31:41;17.33;;;13.80;;
6809;SDS011;3443;48.812;9.112;2023-03-01T01:34:08;14.93;;;12.93;;
6809;SDS011;3443;48.812;9.112;2023-03-01T01:36:38;16.97;;;13.90;;
6809;SDS011;3443;48.812;9.112;2023-03-01T01:39:03;17.33;;;14.37;;
6809;SDS011;3443;48.812;9.112;2023-03-01T01:41:29;16.13;;;13.13;;
6809;SDS011;3443;48.812;9.112;2023-03-01T01:46:55;16.03;;;13.37;;
6809;SDS011;3443;48.812;9.112;2023-03-01T01:49:25;15.10;;;13.43;;
6809;SDS011;3443;48.812;9.112;2023-03-01T01:51:59;16.03;;;13.50;;
6809;SDS011;3443;48.812;9.112;2023-03-01T01:54:36;16.07;;;13.60;;
6809;SDS011;3443;48.812;9.112;2023-03-01T01:57:07;16.13;;;12.90;;
6809;SDS011;3443;48.812;9.112;2023-03-01T01:59:40;15.17;;;13.10;;
6809;SDS011;3443;48.812;9.112;2023-03-01T02:02:08;17.30;;;14.10;;
6809;SDS011;3443;48.812;9.112;2023-03-01T02:04:34;15.40;;;13.80;;
6809;SDS011;3443;48.812;9.112;2023-03-01T02:07:13;14.83;;;13.17;;
6809;SDS011;3443;48.812;9.112;2023-03-01T02:09:43;17.30;;;14.63;;
6809;SDS011;3443;48.812;9.112;2023-03-01T02:12:12;17.87;;;14.23;;
6809;SDS011;3443;48.812;9.112;2023-03-01T02:14:39;14.63;;;12.60;;
6809;SDS011;3443;48.812;9.112;2023-03-01T02:17:04;16.20;;;13.33;;
6809;SDS011;3443;48.812;9.112;2023-03-01T02:22:22;15.37;;;13.50;;
6809;SDS011;3443;48.812;9.112;2023-03-01T02:24:55;16.43;;;13.93;;
6809;SDS011;3443;48.812;9.112;2023-03-01T02:27:26;16.53;;;14.13;;
6809;SDS011;3443;48.812;9.112;2023-03-01T02:30:12;14.97;;;13.37;;
6809;SDS011;3443;48.812;9.112;2023-03-01T02:32:39;15.47;;;13.80;;
6809;SDS011;3443;48.812;9.112;2023-03-01T02:35:06;15.67;;;13.73;;
6809;SDS011;3443;48.812;9.112;2023-03-01T02:37:35;17.53;;;13.93;;
6809;SDS011;3443;48.812;9.112;2023-03-01T02:40:02;15.77;;;14.03;;
6809;SDS011;3443;48.812;9.112;2023-03-01T02:42:32;19.93;;;15.13;;
6809;SDS011;3443;48.812;9.112;2023-03-01T02:45:01;14.03;;;12.53;;
6809;SDS011;3443;48.812;9.112;2023-03-01T02:47:27;18.10;;;14.13;;
6809;SDS011;3443;48.812;9.112;2023-03-01T02:49:53;14.73;;;12.80;;
6809;SDS011;3443;48.812;9.112;2023-03-01T02:52:26;15.80;;;14.10;;
6809;SDS011;3443;48.812;9.112;2023-03-01T02:55:18;16.63;;;13.83;;
6809;SDS011;3443;48.812;9.112;2023-03-01T02:57:44;15.20;;;13.33;;
6809;SDS011;3443;48.812;9.112;2023-03-01T03:00:17;16.17;;;13.73;;
6809;SDS011;3443;48.812;9.112;2023-03-01T03:02:49;16.93;;;13.47;;
6809;SDS011;3443;48.812;9.112;2023-03-01T03:05:37;14.87;;;13.27;;
6809;SDS011;3443;48.812;9.112;2023-03-01T03:08:02;16.43;;;13.77;;
6809;SDS011;3443;48.812;9.112;2023-03-01T03:10:32;19.63;;;14.10;;
6809;SDS011;3443;48.812;9.112;2023-03-01T03:13:01;18.53;;;14.70;;
6809;SDS011;3443;48.812;9.112;2023-03-01T03:15:29;17.53;;;14.83;;
6809;SDS011;3443;48.812;9.112;2023-03-01T03:17:55;16.70;;;13.87;;
6809;SDS011;3443;48.812;9.112;2023-03-01T03:20:24;16.83;;;14.33;;
6809;SDS011;3443;48.812;9.112;2023-03-01T03:22:53;16.70;;;13.87;;
6809;SDS011;3443;48.812;9.112;2023-03-01T03:25:20;17.33;;;12.80;;
6809;SDS011;3443;48.812;9.112;2023-03-01T03:27:47;17.33;;;14.27;;
6809;SDS011;3443;48.812;9.112;2023-03-01T03:30:15;16.97;;;13.87;;
6809;SDS011;3443;48.812;9.112;2023-03-01T03:32:43;15.40;;;13.13;;
6809;SDS011;3443;48.812;9.112;2023-03-01T03:35:17;18.97;;;14.60;;
6809;SDS011;3443;48.812;9.112;2023-03-01T03:37:47;18.17;;;14.23;;
6809;SDS011;3443;48.812;9.112;2023-03-01T03:40:32;17.40;;;13.93;;
6809;SDS011;3443;48.812;9.112;2023-03-01T03:42:59;17.87;;;14.80;;
6809;SDS011;3443;48.812;9.112;2023-03-01T03:45:26;17.10;;;14.27;;
6809;SDS011;3443;48.812;9.112;2023-03-01T03:47:52;16.17;;;14.03;;
6809;SDS011;3443;48.812;9.112;2023-03-01T03:50:18;16.67;;;13.47;;
6809;SDS011;3443;48.812;9.112;2023-03-01T03:52:44;18.93;;;14.67;;
6809;SDS011;3443;48.812;9.112;2023-03-01T03:55:10;14.70;;;12.53;;
6809;SDS011;3443;48.812;9.112;2023-03-01T03:57:40;16.83;;;13.83;;
6809;SDS011;3443;48.812;9.112;2023-03-01T04:00:09;18.23;;;14.13;;
6809;SDS011;3443;48.812;9.112;2023-03-01T04:02:40;15.47;;;13.77;;
6809;SDS011;3443;48.812;9.112;2023-03-01T04:05:08;17.83;;;13.93;;
6809;SDS011;3443;48.812;9.112;2023-03-01T04:07:35;18.50;;;13.57;;
6809;SDS011;3443;48.812;9.112;2023-03-01T04:10:02;19.03;;;14.87;;
6809;SDS011;3443;48.812;9.112;2023-03-01T04:12:29;15.13;;;12.30;;
6809;SDS011;3443;48.812;9.112;2023-03-01T04:14:55;16.97;;;14.03;;
6809;SDS011;3443;48.812;9.112;2023-03-01T04:17:20;15.80;;;13.07;;
6809;SDS011;3443;48.812;9.112;2023-03-01T04:19:46;15.47;;;12.80;;
6809;SDS011;3443;48.812;9.112;2023-03-01T04:22:13;18.33;;;14.03;;
6809;SDS011;3443;48.812;9.112;2023-03-01T04:24:43;16.13;;;13.93;;
6809;SDS011;3443;48.812;9.112;2023-03-01T04:27:10;18.80;;;13.97;;
6809;SDS011;3443;48.812;9.112;2023-03-01T04:29:36;16.33;;;13.73;;
6809;SDS011;3443;48.812;9.112;2023-03-01T04:32:02;15.90;;;13.50;;
6809;SDS011;3443;48.812;9.112;2023-03-01T04:34:28;16.67;;;14.27;;
6809;SDS011;3443;48.812;9.112;2023-03-01T04:36:54;15.20;;;13.50;;
6809;SDS011;3443;48.812;9.112;2023-03-01T04:39:20;14.53;;;12.80;;
6809;SDS011;3443;48.812;9.112;2023-03-01T04:41:46;14.10;;;12.53;;
6809;SDS011;3443;48.812;9.112;2023-03-01T04:44:11;14.93;;;13.33;;
6809;SDS011;3443;48.812;9.112;2023-03-01T04:46:37;19.67;;;15.13;;
6809;SDS011;3443;48.812;9.112;2023-03-01T04:49:03;15.53;;;13.30;;
6809;SDS011;3443;48.812;9.112;2023-03-01T04:51:30;14.30;;;12.27;;
6809;SDS011;3443;48.812;9.112;2023-03-01T04:53:57;16.47;;;13.03;;
6809;SDS011;3443;48.812;9.112;2023-03-01T04:56:22;16.43;;;14.03;;
6809;SDS011;3443;48.812;9.112;2023-03-01T04:58:48;15.30;;;13.53;;
6809;SDS011;3443;48.812;9.112;2023-03-01T05:01:17;15.87;;;13.77;;
6809;SDS011;3443;48.812;9.112;2023-03-01T05:03:45;17.40;;;14.23;;
6809;SDS011;3443;48.812;9.112;2023-03-01T05:06:12;17.43;;;14.20;;
6809;SDS011;3443;48.812;9.112;2023-03-01T05:08:38;16.90;;;14.77;;
6809;SDS011;3443;48.812;9.112;2023-03-01T05:11:04;17.90;;;14.33;;
6809;SDS011;3443;48.812;9.112;2023-03-01T05:13:30;18.20;;;13.90;;
6809;SDS011;3443;48.812;9.112;2023-03-01T05:15:58;17.37;;;14.73;;
6809;SDS011;3443;48.812;9.112;2023-03-01T05:18:25;17.33;;;13.80;;
6809;SDS011;3443;48.812;9.112;2023-03-01T05:20:56;15.63;;;13.07;;
6809;SDS011;3443;48.812;9.112;2023-03-01T05:23:28;18.77;;;14.40;;
6809;SDS011;3443;48.812;9.112;2023-03-01T05:25:57;20.90;;;14.60;;
6809;SDS011;3443;48.812;9.112;2023-03-01T05:28:24;17.43;;;14.67;;
6809;SDS011;3443;48.812;9.112;2023-03-01T05:30:51;17.13;;;14.27;;
6809;SDS011;3443;48.812;9.112;2023-03-01T05:33:17;16.40;;;13.83;;
6809;SDS011;3443;48.812;9.112;2023-03-01T05:35:43;17.07;;;14.10;;
6809;SDS011;3443;48.812;9.112;2023-03-01T05:38:10;15.90;;;12.60;;
6809;SDS011;3443;48.812;9.112;2023-03-01T05:40:38;18.40;;;14.73;;
6809;SDS011;3443;48.812;9.112;2023-03-01T05:43:05;19.07;;;14.40;;
6809;SDS011;3443;48.812;9.112;2023-03-01T05:45:31;18.47;;;15.00;;
6809;SDS011;3443;48.812;9.112;2023-03-01T05:47:57;18.60;;;14.57;;
6809;SDS011;3443;48.812;9.112;2023-03-01T05:50:27;16.77;;;14.57;;
6809;SDS011;3443;48.812;9.112;2023-03-01T05:52:59;15.90;;;14.30;;
6809;SDS011;3443;48.812;9.112;2023-03-01T05:55:33;18.33;;;16.10;;
6809;SDS011;3443;48.812;9.112;2023-03-01T05:58:03;18.30;;;14.93;;
6809;SDS011;3443;48.812;9.112;2023-03-01T06:00:31;16.37;;;14.13;;
6809;SDS011;3443;48.812;9.112;2023-03-01T06:02:57;17.10;;;14.50;;
6809;SDS011;3443;48.812;9.112;2023-03-01T06:05:23;20.97;;;15.13;;
6809;SDS011;3443;48.812;9.112;2023-03-01T06:07:50;19.77;;;15.77;;
6809;SDS011;3443;48.812;9.112;2023-03-01T06:10:15;20.03;;;16.13;;
6809;SDS011;3443;48.812;9.112;2023-03-01T06:12:42;21.80;;;16.47;;
6809;SDS011;3443;48.812;9.112;2023-03-01T06:15:08;22.13;;;15.93;;
6809;SDS011;3443;48.812;9.112;2023-03-01T06:17:36;22.33;;;16.13;;
6809;SDS011;3443;48.812;9.112;2023-03-01T06:20:04;21.03;;;16.60;;
6809;SDS011;3443;48.812;9.112;2023-03-01T06:22:31;19.93;;;15.80;;
6809;SDS011;3443;48.812;9.112;2023-03-01T06:25:04;19.83;;;16.10;;
6809;SDS011;3443;48.812;9.112;2023-03-01T06:27:30;20.20;;;15.13;;
6809;SDS011;3443;48.812;9.112;2023-03-01T06:29:56;19.57;;;15.40;;
6809;SDS011;3443;48.812;9.112;2023-03-01T06:32:21;21.23;;;16.57;;
6809;SDS011;3443;48.812;9.112;2023-03-01T06:34:49;18.50;;;15.17;;
6809;SDS011;3443;48.812;9.112;2023-03-01T06:37:15;18.40;;;15.63;;
6809;SDS011;3443;48.812;9.112;2023-03-01T06:39:41;22.77;;;16.17;;
6809;SDS011;3443;48.812;9.112;2023-03-01T06:42:07;19.93;;;15.60;;
6809;SDS011;3443;48.812;9.112;2023-03-01T06:44:35;25.33;;;17.20;;
6809;SDS011;3443;48.812;9.112;2023-03-01T06:47:00;21.07;;;15.93;;
6809;SDS011;3443;48.812;9.112;2023-03-01T06:49:26;21.50;;;15.27;;
6809;SDS011;3443;48.812;9.112;2023-03-01T06:51:52;21.97;;;15.50;;
6809;SDS011;3443;48.812;9.112;2023-03-01T06:54:18;20.53;;;16.13;;
6809;SDS011;3443;48.812;9.112;2023-03-01T06:56:46;23.37;;;16.83;;
6809;SDS011;3443;48.812;9.112;2023-03-01T06:59:12;20.13;;;15.83;;
6809;SDS011;3443;48.812;9.112;2023-03-01T07:01:38;19.97;;;16.00;;
6809;SDS011;3443;48.812;9.112;2023-03-01T07:04:04;22.23;;;17.33;;
6809;SDS011;3443;48.812;9.112;2023-03-01T07:06:29;20.40;;;15.83;;
6809;SDS011;3443;48.812;9.112;2023-03-01T07:08:55;21.40;;;16.20;;
6809;SDS011;3443;48.812;9.112;2023-03-01T07:11:21;20.70;;;15.67;;
6809;SDS011;3443;48.812;9.112;2023-03-01T07:13:47;20.90;;;16.63;;
6809;SDS011;3443;48.812;9.112;2023-03-01T07:16:13;21.43;;;16.07;;
6809;SDS011;3443;48.812;9.112;2023-03-01T07:18:39;20.97;;;16.73;;
6809;SDS011;3443;48.812;9.112;2023-03-01T07:21:06;26.17;;;16.50;;
6809;SDS011;3443;48.812;9.112;2023-03-01T07:23:33;22.23;;;16.73;;
6809;SDS011;3443;48.812;9.112;2023-03-01T07:25:58;21.23;;;17.37;;
6809;SDS011;3443;48.812;9.112;2023-03-01T07:28:25;26.03;;;17.30;;
6809;SDS011;3443;48.812;9.112;2023-03-01T07:30:51;22.20;;;17.57;;
6809;SDS011;3443;48.812;9.112;2023-03-01T07:33:16;22.10;;;17.27;;
6809;SDS011;3443;48.812;9.112;2023-03-01T07:35:42;24.90;;;17.87;;
6809;SDS011;3443;48.812;9.112;2023-03-01T07:38:07;23.40;;;17.87;;
6809;SDS011;3443;48.812;9.112;2023-03-01T07:40:33;23.97;;;18.50;;
6809;SDS011;3443;48.812;9.112;2023-03-01T07:42:59;23.93;;;17.90;;
6809;SDS011;3443;48.812;9.112;2023-03-01T07:45:26;22.70;;;18.03;;
6809;SDS011;3443;48.812;9.112;2023-03-01T07:47:52;21.60;;;17.80;;
6809;SDS011;3443;48.812;9.112;2023-03-01T07:50:18;22.60;;;18.30;;
6809;SDS011;3443;48.812;9.112;2023-03-01T07:52:44;24.67;;;17.97;;
6809;SDS011;3443;48.812;9.112;2023-03-01T07:55:10;25.03;;;18.00;;
6809;SDS011;3443;48.812;9.112;2023-03-01T07:57:38;27.87;;;21.13;;
6809;SDS011;3443;48.812;9.112;2023-03-01T08:00:04;44.33;;;30.30;;
6809;SDS011;3443;48.812;9.112;2023-03-01T08:02:31;25.73;;;17.97;;
6809;SDS011;3443;48.812;9.112;2023-03-01T08:04:56;38.00;;;24.80;;
6809;SDS011;3443;48.812;9.112;2023-03-01T08:07:22;28.53;;;19.93;;
6809;SDS011;3443;48.812;9.112;2023-03-01T08:09:49;26.77;;;18.10;;
6809;SDS011;3443;48.812;9.112;2023-03-01T08:12:14;30.90;;;22.37;;
6809;SDS011;3443;48.812;9.112;2023-03-01T08:14:41;48.73;;;30.53;;
6809;SDS011;3443;48.812;9.112;2023-03-01T08:17:07;32.90;;;23.13;;
6809;SDS011;3443;48.812;9.112;2023-03-01T08:19:33;31.93;;;21.73;;
6809;SDS011;3443;48.812;9.112;2023-03-01T08:22:00;26.07;;;19.20;;
6809;SDS011;3443;48.812;9.112;2023-03-01T08:24:27;29.53;;;21.03;;
6809;SDS011;3443;48.812;9.112;2023-03-01T08:26:52;24.63;;;17.97;;
6809;SDS011;3443;48.812;9.112;2023-03-01T08:29:18;26.00;;;18.30;;
6809;SDS011;3443;48.812;9.112;2023-03-01T08:31:43;25.67;;;20.17;;
6809;SDS011;3443;48.812;9.112;2023-03-01T08:34:11;23.40;;;17.87;;
6809;SDS011;3443;48.812;9.112;2023-03-01T08:36:39;57.23;;;36.40;;
6809;SDS011;3443;48.812;9.112;2023-03-01T08:39:06;43.87;;;27.00;;
6809;SDS011;3443;48.812;9.112;2023-03-01T08:41:33;34.47;;;20.20;;
6809;SDS011;3443;48.812;9.112;2023-03-01T08:43:59;21.90;;;17.57;;
6809;SDS011;3443;48.812;9.112;2023-03-01T08:46:28;24.27;;;17.37;;
6809;SDS011;3443;48.812;9.112;2023-03-01T08:48:56;64.57;;;35.23;;
6809;SDS011;3443;48.812;9.112;2023-03-01T08:51:22;96.00;;;47.37;;
6809;SDS011;3443;48.812;9.112;2023-03-01T08:53:48;38.20;;;24.53;;
6809;SDS011;3443;48.812;9.112;2023-03-01T08:56:14;23.57;;;17.73;;
6809;SDS011;3443;48.812;9.112;2023-03-01T08:58:45;62.43;;;34.03;;
6809;SDS011;3443;48.812;9.112;2023-03-01T09:01:13;37.40;;;24.63;;
6809;SDS011;3443;48.812;9.112;2023-03-01T09:03:42;29.07;;;18.40;;
6809;SDS011;3443;48.812;9.112;2023-03-01T09:06:09;35.17;;;21.40;;
6809;SDS011;3443;48.812;9.112;2023-03-01T09:08:39;47.93;;;28.73;;
6809;SDS011;3443;48.812;9.112;2023-03-01T09:11:07;23.97;;;17.60;;
6809;SDS011;3443;48.812;9.112;2023-03-01T09:13:38;25.57;;;17.67;;
6809;SDS011;3443;48.812;9.112;2023-03-01T09:16:04;22.77;;;15.83;;
6809;SDS011;3443;48.812;9.112;2023-03-01T09:18:31;25.03;;;16.80;;
6809;SDS011;3443;48.812;9.112;2023-03-01T09:21:01;22.70;;;16.43;;
6809;SDS011;3443;48.812;9.112;2023-03-01T09:23:33;29.67;;;19.13;;
6809;SDS011;3443;48.812;9.112;2023-03-01T09:26:04;28.17;;;19.03;;
6809;SDS011;3443;48.812;9.112;2023-03-01T09:28:30;29.30;;;19.37;;
6809;SDS011;3443;48.812;9.112;2023-03-01T09:30:59;37.03;;;22.73;;
6809;SDS011;3443;48.812;9.112;2023-03-01T09:33:26;34.47;;;20.47;;
6809;SDS011;3443;48.812;9.112;2023-03-01T09:35:56;37.23;;;22.63;;
6809;SDS011;3443;48.812;9.112;2023-03-01T09:38:22;24.03;;;15.93;;
6809;SDS011;3443;48.812;9.112;2023-03-01T09:40:48;23.00;;;15.90;;
6809;SDS011;3443;48.812;9.112;2023-03-01T09:46:22;23.13;;;15.67;;
6809;SDS011;3443;48.812;9.112;2023-03-01T09:51:35;26.30;;;15.97;;
6809;SDS011;3443;48.812;9.112;2023-03-01T09:54:02;20.47;;;15.30;;
6809;SDS011;3443;48.812;9.112;2023-03-01T09:56:30;26.47;;;16.43;;
6809;SDS011;3443;48.812;9.112;2023-03-01T10:01:34;23.90;;;15.07;;
6809;SDS011;3443;48.812;9.112;2023-03-01T10:06:58;22.77;;;14.83;;
6809;SDS011;3443;48.812;9.112;2023-03-01T10:09:46;24.77;;;16.53;;
6809;SDS011;3443;48.812;9.112;2023-03-01T10:12:13;21.27;;;14.43;;
6809;SDS011;3443;48.812;9.112;2023-03-01T10:22:43;21.70;;;14.53;;
6809;SDS011;3443;48.812;9.112;2023-03-01T10:25:15;22.13;;;13.87;;
6809;SDS011;3443;48.812;9.112;2023-03-01T10:27:51;20.07;;;13.80;;
6809;SDS011;3443;48.812;9.112;2023-03-01T10:33:13;20.53;;;13.97;;
6809;SDS011;3443;48.812;9.112;2023-03-01T10:35:55;21.80;;;14.37;;
6809;SDS011;3443;48.812;9.112;2023-03-01T10:38:21;18.17;;;12.60;;
6809;SDS011;3443;48.812;9.112;2023-03-01T10:40:54;19.13;;;13.57;;
6809;SDS011;3443;48.812;9.112;2023-03-01T10:43:22;20.70;;;14.57;;
6809;SDS011;3443;48.812;9.112;2023-03-01T10:45:51;18.10;;;13.80;;
6809;SDS011;3443;48.812;9.112;2023-03-01T10:48:24;18.30;;;13.60;;
6809;SDS011;3443;48.812;9.112;2023-03-01T10:53:34;21.47;;;13.77;;
6809;SDS011;3443;48.812;9.112;2023-03-01T10:58:36;22.03;;;13.77;;
6809;SDS011;3443;48.812;9.112;2023-03-01T11:04:11;19.10;;;13.53;;
6809;SDS011;3443;48.812;9.112;2023-03-01T11:06:38;18.80;;;13.00;;
6809;SDS011;3443;48.812;9.112;2023-03-01T11:09:19;20.07;;;13.30;;
6809;SDS011;3443;48.812;9.112;2023-03-01T11:11:53;17.27;;;12.80;;
6809;SDS011;3443;48.812;9.112;2023-03-01T11:14:24;16.60;;;12.53;;
6809;SDS011;3443;48.812;9.112;2023-03-01T11:16:58;16.23;;;12.17;;
6809;SDS011;3443;48.812;9.112;2023-03-01T11:19:27;18.80;;;12.60;;
6809;SDS011;3443;48.812;9.112;2023-03-01T11:22:03;17.57;;;12.43;;
6809;SDS011;3443;48.812;9.112;2023-03-01T11:24:43;16.87;;;12.43;;
6809;SDS011;3443;48.812;9.112;2023-03-01T11:32:31;18.07;;;12.17;;
6809;SDS011;3443;48.812;9.112;2023-03-01T11:37:58;18.00;;;12.63;;
6809;SDS011;3443;48.812;9.112;2023-03-01T11:40:35;18.23;;;12.47;;
6809;SDS011;3443;48.812;9.112;2023-03-01T11:43:11;15.07;;;11.40;;
6809;SDS011;3443;48.812;9.112;2023-03-01T11:45:47;18.03;;;12.23;;
6809;SDS011;3443;48.812;9.112;2023-03-01T11:48:27;16.40;;;12.20;;
6809;SDS011;3443;48.812;9.112;2023-03-01T11:50:54;17.80;;;12.00;;
6809;SDS011;3443;48.812;9.112;2023-03-01T11:58:44;18.37;;;12.47;;
6809;SDS011;3443;48.812;9.112;2023-03-01T12:10:27;15.88;;;10.95;;
6809;SDS011;3443;48.812;9.112;2023-03-01T12:15:38;17.13;;;11.02;;
6809;SDS011;3443;48.812;9.112;2023-03-01T12:31:27;14.27;;;10.60;;
6809;SDS011;3443;48.812;9.112;2023-03-01T12:34:24;17.40;;;11.93;;
6809;SDS011;3443;48.812;9.112;2023-03-01T12:40:15;14.63;;;10.50;;
6809;SDS011;3443;48.812;9.112;2023-03-01T12:45:26;20.25;;;11.48;;
6809;SDS011;3443;48.812;9.112;2023-03-01T12:51:20;16.40;;;10.80;;
6809;SDS011;3443;48.812;9.112;2023-03-01T12:53:50;15.77;;;11.30;;
6809;SDS011;3443;48.812;9.112;2023-03-01T12:56:23;16.45;;;11.27;;
6809;SDS011;3443;48.812;9.112;2023-03-01T12:59:13;18.00;;;10.73;;
6809;SDS011;3443;48.812;9.112;2023-03-01T13:01:45;15.00;;;11.13;;
6809;SDS011;3443;48.812;9.112;2023-03-01T13:07:11;16.10;;;11.27;;
6809;SDS011;3443;48.812;9.112;2023-03-01T13:30:59;18.40;;;11.07;;
6809;SDS011;3443;48.812;9.112;2023-03-01T13:35:56;14.25;;;10.30;;
6809;SDS011;3443;48.812;9.112;2023-03-01T13:41:11;15.60;;;10.55;;
6809;SDS011;3443;48.812;9.112;2023-03-01T13:43:38;17.60;;;11.57;;
6809;SDS011;3443;48.812;9.112;2023-03-01T13:48:44;14.55;;;11.40;;
6809;SDS011;3443;48.812;9.112;2023-03-01T13:51:14;17.23;;;12.25;;
6809;SDS011;3443;48.812;9.112;2023-03-01T13:53:42;15.75;;;11.73;;
6809;SDS011;3443;48.812;9.112;2023-03-01T13:56:14;17.30;;;11.25;;
6809;SDS011;3443;48.812;9.112;2023-03-01T13:58:52;16.77;;;12.13;;
6809;SDS011;3443;48.812;9.112;2023-03-01T14:01:30;16.08;;;11.23;;
6809;SDS011;3443;48.812;9.112;2023-03-01T14:03:58;17.73;;;11.30;;
6809;SDS011;3443;48.812;9.112;2023-03-01T14:06:25;16.50;;;11.25;;
6809;SDS011;3443;48.812;9.112;2023-03-01T14:09:23;15.15;;;11.25;;
6809;SDS011;3443;48.812;9.112;2023-03-01T14:14:52;14.40;;;11.48;;
6809;SDS011;3443;48.812;9.112;2023-03-01T14:19:57;17.65;;;11.77;;
6809;SDS011;3443;48.812;9.112;2023-03-01T14:22:28;15.43;;;12.50;;
6809;SDS011;3443;48.812;9.112;2023-03-01T14:24:58;17.10;;;11.90;;
6809;SDS011;3443;48.812;9.112;2023-03-01T14:27:39;18.38;;;11.73;;
6809;SDS011;3443;48.812;9.112;2023-03-01T14:32:37;18.40;;;12.00;;
6809;SDS011;3443;48.812;9.112;2023-03-01T14:35:18;15.93;;;12.35;;
6809;SDS011;3443;48.812;9.112;2023-03-01T14:37:46;16.55;;;12.38;;
6809;SDS011;3443;48.812;9.112;2023-03-01T14:40:20;16.60;;;12.38;;
6809;SDS011;3443;48.812;9.112;2023-03-01T14:42:52;16.88;;;12.07;;
6809;SDS011;3443;48.812;9.112;2023-03-01T14:45:20;17.27;;;11.90;;
6809;SDS011;3443;48.812;9.112;2023-03-01T14:47:45;17.85;;;12.88;;
6809;SDS011;3443;48.812;9.112;2023-03-01T14:50:18;16.83;;;12.43;;
6809;SDS011;3443;48.812;9.112;2023-03-01T14:52:59;18.33;;;13.07;;
6809;SDS011;3443;48.812;9.112;2023-03-01T14:58:08;20.17;;;11.88;;
6809;SDS011;3443;48.812;9.112;2023-03-01T15:00:37;20.85;;;12.77;;
6809;SDS011;3443;48.812;9.112;2023-03-01T15:03:14;16.42;;;11.90;;
6809;SDS011;3443;48.812;9.112;2023-03-01T15:05:47;17.58;;;11.93;;
6809;SDS011;3443;48.812;9.112;2023-03-01T15:08:17;16.60;;;12.05;;
6809;SDS011;3443;48.812;9.112;2023-03-01T15:10:55;17.40;;;12.15;;
6809;SDS011;3443;48.812;9.112;2023-03-01T15:13:41;15.85;;;12.40;;
6809;SDS011;3443;48.812;9.112;2023-03-01T15:16:15;16.98;;;12.25;;
6809;SDS011;3443;48.812;9.112;2023-03-01T15:18:54;18.00;;;12.23;;
6809;SDS011;3443;48.812;9.112;2023-03-01T15:21:37;16.33;;;12.07;;
6809;SDS011;3443;48.812;9.112;2023-03-01T15:26:42;17.80;;;12.65;;
6809;SDS011;3443;48.812;9.112;2023-03-01T15:29:17;16.88;;;12.32;;
6809;SDS011;3443;48.812;9.112;2023-03-01T15:31:52;17.70;;;12.13;;
6809;SDS011;3443;48.812;9.112;2023-03-01T15:34:31;19.88;;;11.63;;
6809;SDS011;3443;48.812;9.112;2023-03-01T15:37:00;16.48;;;12.40;;
6809;SDS011;3443;48.812;9.112;2023-03-01T15:39:34;17.55;;;12.27;;
6809;SDS011;3443;48.812;9.112;2023-03-01T15:42:17;20.17;;;12.32;;
6809;SDS011;3443;48.812;9.112;2023-03-01T15:47:46;17.85;;;12.48;;
6809;SDS011;3443;48.812;9.112;2023-03-01T15:50:21;15.85;;;11.98;;
6809;SDS011;3443;48.812;9.112;2023-03-01T15:52:49;17.73;;;11.68;;
6809;SDS011;3443;48.812;9.112;2023-03-01T15:57:43;19.38;;;12.15;;
6809;SDS011;3443;48.812;9.112;2023-03-01T16:00:09;17.20;;;11.52;;
6809;SDS011;3443;48.812;9.112;2023-03-01T16:02:38;16.95;;;11.60;;
6809;SDS011;3443;48.812;9.112;2023-03-01T16:05:04;18.02;;;12.10;;
6809;SDS011;3443;48.812;9.112;2023-03-01T16:07:30;17.08;;;12.32;;
6809;SDS011;3443;48.812;9.112;2023-03-01T16:09:56;16.77;;;11.35;;
6809;SDS011;3443;48.812;9.112;2023-03-01T16:12:22;17.33;;;11.48;;
6809;SDS011;3443;48.812;9.112;2023-03-01T16:14:49;16.67;;;11.27;;
6809;SDS011;3443;48.812;9.112;2023-03-01T16:17:14;16.05;;;11.55;;
6809;SDS011;3443;48.812;9.112;2023-03-01T16:19:40;17.00;;;11.57;;
6809;SDS011;3443;48.812;9.112;2023-03-01T16:22:06;16.92;;;11.70;;
6809;SDS011;3443;48.812;9.112;2023-03-01T16:24:32;16.67;;;11.85;;
6809;SDS011;3443;48.812;9.112;2023-03-01T16:26:57;17.60;;;11.63;;
6809;SDS011;3443;48.812;9.112;2023-03-01T16:29:23;18.17;;;12.15;;
6809;SDS011;3443;48.812;9.112;2023-03-01T16:31:48;19.55;;;12.30;;
6809;SDS011;3443;48.812;9.112;2023-03-01T16:34:14;17.65;;;11.68;;
6809;SDS011;3443;48.812;9.112;2023-03-01T16:36:39;15.82;;;11.23;;
6809;SDS011;3443;48.812;9.112;2023-03-01T16:39:08;15.15;;;10.85;;
6809;SDS011;3443;48.812;9.112;2023-03-01T16:41:34;15.00;;;10.73;;
6809;SDS011;3443;48.812;9.112;2023-03-01T16:43:59;18.43;;;11.23;;
6809;SDS011;3443;48.812;9.112;2023-03-01T16:46:26;14.10;;;10.98;;
6809;SDS011;3443;48.812;9.112;2023-03-01T16:48:53;16.23;;;11.53;;
6809;SDS011;3443;48.812;9.112;2023-03-01T16:51:20;18.95;;;11.40;;
6809;SDS011;3443;48.812;9.112;2023-03-01T16:53:46;17.35;;;11.95;;
6809;SDS011;3443;48.812;9.112;2023-03-01T16:56:12;16.63;;;11.13;;
6809;SDS011;3443;48.812;9.112;2023-03-01T16:58:39;20.60;;;11.50;;
6809;SDS011;3443;48.812;9.112;2023-03-01T17:01:12;16.92;;;11.60;;
6809;SDS011;3443;48.812;9.112;2023-03-01T17:03:40;18.38;;;12.68;;
6809;SDS011;3443;48.812;9.112;2023-03-01T17:06:08;20.60;;;12.57;;
6809;SDS011;3443;48.812;9.112;2023-03-01T17:08:35;18.08;;;12.98;;
6809;SDS011;3443;48.812;9.112;2023-03-01T17:11:05;18.88;;;11.77;;
6809;SDS011;3443;48.812;9.112;2023-03-01T17:13:35;16.20;;;10.98;;